createdAt,value
2023-05-03T00:02:24.472Z,12.90
2023-05-03T00:04:54.478Z,11.75
2023-05-03T00:07:23.133Z,11.77
2023-05-03T00:09:50.325Z,10.80
2023-05-03T00:12:17.410Z,11.73
2023-05-03T00:14:46.464Z,12.05
2023-05-03T00:17:13.935Z,13.10
2023-05-03T00:19:41.006Z,12.70
2023-05-03T00:22:09.102Z,11.45
2023-05-03T00:24:36.266Z,12.38
2023-05-03T00:27:04.868Z,12.65
2023-05-03T00:29:31.889Z,12.57
2023-05-03T00:32:00.412Z,13.80
2023-05-03T00:34:27.570Z,12.40
2023-05-03T00:36:54.573Z,13.95
2023-05-03T00:39:21.579Z,13.13
2023-05-03T00:41:48.578Z,14.02
2023-05-03T00:44:15.536Z,15.55
2023-05-03T00:46:42.770Z,14.25
2023-05-03T00:49:09.792Z,15.50
2023-05-03T00:51:37.294Z,15.40
2023-05-03T00:54:05.020Z,15.68
2023-05-03T00:56:44.021Z,16.23
2023-05-03T00:59:19.374Z,16.83
2023-05-03T01:01:51.492Z,17.00
2023-05-03T01:04:22.221Z,17.50
2023-05-03T01:07:03.115Z,17.77
2023-05-03T01:09:51.818Z,17.00
2023-05-03T01:12:45.138Z,19.20
2023-05-03T01:15:33.768Z,16.25
2023-05-03T01:18:09.135Z,16.15
2023-05-03T01:20:38.209Z,16.88
2023-05-03T01:23:36.675Z,16.17
2023-05-03T01:26:26.233Z,18.33
2023-05-03T01:28:54.172Z,18.52
2023-05-03T01:31:30.011Z,18.17
2023-05-03T01:34:21.773Z,18.55
2023-05-03T01:36:50.940Z,17.65
2023-05-03T01:39:24.930Z,17.70
2023-05-03T01:41:53.116Z,16.00
2023-05-03T01:44:21.550Z,16.50
2023-05-03T01:46:49.802Z,18.00
2023-05-03T01:49:16.944Z,16.13
2023-05-03T01:51:43.919Z,15.43
2023-05-03T01:54:11.374Z,16.05
2023-05-03T01:56:38.541Z,16.23
2023-05-03T01:59:05.637Z,14.90
2023-05-03T02:01:32.783Z,15.10
2023-05-03T02:03:59.841Z,15.45
2023-05-03T02:06:27.062Z,15.02
2023-05-03T02:08:54.532Z,15.50
2023-05-03T02:11:21.881Z,14.15
2023-05-03T02:13:50.792Z,15.30
2023-05-03T02:16:21.043Z,14.90
2023-05-03T02:18:48.658Z,15.50
2023-05-03T02:21:15.918Z,13.57
2023-05-03T02:23:42.899Z,14.40
2023-05-03T02:26:09.882Z,14.52
2023-05-03T02:28:36.884Z,13.77
2023-05-03T02:31:06.521Z,13.35
2023-05-03T02:33:33.837Z,14.88
2023-05-03T02:36:01.101Z,14.05
2023-05-03T02:38:28.061Z,14.77
2023-05-03T02:40:55.011Z,13.65
2023-05-03T02:43:22.496Z,12.93
2023-05-03T02:45:49.524Z,14.30
2023-05-03T02:48:16.743Z,12.90
2023-05-03T02:50:43.976Z,13.40
2023-05-03T02:53:11.783Z,13.73
2023-05-03T02:55:40.140Z,12.63
2023-05-03T02:58:07.900Z,13.20
2023-05-03T03:00:35.263Z,13.43
2023-05-03T03:03:02.432Z,12.93
2023-05-03T03:05:29.473Z,12.70
2023-05-03T03:07:56.583Z,13.23
2023-05-03T03:10:24.260Z,14.15
2023-05-03T03:12:51.375Z,13.65
2023-05-03T03:15:18.417Z,13.30
2023-05-03T03:17:45.483Z,12.98
2023-05-03T03:20:12.959Z,13.98
2023-05-03T03:22:40.655Z,13.57
2023-05-03T03:25:08.444Z,12.85
2023-05-03T03:27:37.466Z,13.50
2023-05-03T03:30:08.318Z,13.95
2023-05-03T03:32:35.692Z,12.93
2023-05-03T03:35:02.776Z,12.98
2023-05-03T03:37:29.770Z,12.68
2023-05-03T03:39:57.444Z,13.32
2023-05-03T03:42:25.941Z,12.32
2023-05-03T03:44:52.999Z,12.38
2023-05-03T03:47:20.050Z,13.10
2023-05-03T03:49:47.154Z,13.35
2023-05-03T03:52:14.172Z,12.40
2023-05-03T03:54:41.159Z,12.95
2023-05-03T03:57:08.150Z,13.15
2023-05-03T03:59:35.124Z,12.98
2023-05-03T04:02:02.140Z,14.30
2023-05-03T04:04:29.270Z,12.15
2023-05-03T04:06:56.373Z,12.75
2023-05-03T04:09:23.786Z,11.57
2023-05-03T04:11:50.776Z,11.45
2023-05-03T04:14:17.818Z,13.55
2023-05-03T04:16:44.917Z,12.80
2023-05-03T04:19:11.971Z,12.98
2023-05-03T04:21:38.987Z,12.32
2023-05-03T04:24:07.664Z,12.50
2023-05-03T04:26:35.442Z,13.32
2023-05-03T04:29:02.876Z,12.98
2023-05-03T04:31:30.224Z,13.35
2023-05-03T04:33:58.133Z,13.60
2023-05-03T04:36:30.005Z,13.88
2023-05-03T04:38:57.575Z,11.75
2023-05-03T04:41:24.904Z,13.00
2023-05-03T04:43:52.347Z,13.60
2023-05-03T04:46:19.336Z,14.32
2023-05-03T04:48:46.539Z,13.05
2023-05-03T04:51:13.654Z,13.55
2023-05-03T04:53:40.646Z,14.25
2023-05-03T04:56:07.877Z,15.48
2023-05-03T04:58:34.914Z,15.10
2023-05-03T05:01:02.573Z,14.73
2023-05-03T05:03:31.775Z,14.00
2023-05-03T05:05:59.087Z,14.38
2023-05-03T05:08:26.085Z,13.70
2023-05-03T05:10:53.123Z,16.50
2023-05-03T05:13:20.120Z,14.00
2023-05-03T05:15:47.121Z,14.38
2023-05-03T05:18:14.055Z,14.43
2023-05-03T05:20:41.107Z,15.05
2023-05-03T05:23:08.073Z,14.07
2023-05-03T05:25:35.060Z,15.05
2023-05-03T05:28:01.993Z,14.57
2023-05-03T05:30:28.984Z,14.02
2023-05-03T05:32:56.027Z,13.73
2023-05-03T05:35:23.329Z,13.68
2023-05-03T05:37:50.426Z,14.25
2023-05-03T05:40:17.542Z,13.75
2023-05-03T05:42:46.758Z,13.15
2023-05-03T05:45:13.756Z,13.75
2023-05-03T05:47:40.788Z,14.00
2023-05-03T05:50:16.766Z,13.75
2023-05-03T05:52:44.909Z,13.10
2023-05-03T05:55:14.737Z,12.88
2023-05-03T05:57:41.755Z,12.75
2023-05-03T06:00:14.689Z,13.18
2023-05-03T06:02:42.919Z,13.15
2023-05-03T06:05:11.433Z,12.88
2023-05-03T06:07:38.337Z,14.52
2023-05-03T06:10:05.808Z,13.77
2023-05-03T06:12:32.927Z,14.20
2023-05-03T06:15:02.399Z,12.90
2023-05-03T06:17:30.202Z,13.00
2023-05-03T06:19:58.517Z,13.65
2023-05-03T06:22:26.525Z,12.82
2023-05-03T06:24:54.578Z,12.02
2023-05-03T06:27:21.640Z,11.50
2023-05-03T06:29:50.151Z,12.27
2023-05-03T06:32:17.118Z,12.70
2023-05-03T06:34:44.105Z,13.07
2023-05-03T06:37:11.521Z,12.13
2023-05-03T06:39:38.496Z,11.30
2023-05-03T06:42:05.757Z,10.43
2023-05-03T06:44:32.652Z,9.30
2023-05-03T06:46:59.611Z,10.75
2023-05-03T06:49:26.602Z,9.43
2023-05-03T06:51:53.593Z,10.05
2023-05-03T06:54:20.587Z,9.75
2023-05-03T06:56:47.594Z,10.05
2023-05-03T06:59:14.538Z,9.68
2023-05-03T07:01:41.524Z,12.60
2023-05-03T07:04:08.596Z,9.65
2023-05-03T07:06:48.254Z,9.27
2023-05-03T07:09:35.412Z,9.32
2023-05-03T07:12:08.950Z,10.23
2023-05-03T07:14:36.051Z,10.63
2023-05-03T07:17:02.986Z,9.00
2023-05-03T07:19:30.649Z,10.80
2023-05-03T07:21:57.680Z,10.77
2023-05-03T07:24:27.483Z,9.32
2023-05-03T07:26:54.604Z,9.60
2023-05-03T07:29:21.775Z,9.57
2023-05-03T07:31:49.862Z,10.25
2023-05-03T07:34:17.888Z,9.57
2023-05-03T07:36:44.889Z,9.70
2023-05-03T07:39:12.561Z,9.50
2023-05-03T07:41:39.585Z,9.40
2023-05-03T07:44:06.580Z,9.67
2023-05-03T07:46:35.335Z,9.67
2023-05-03T07:49:04.792Z,17.00
2023-05-03T07:51:36.692Z,14.60
2023-05-03T07:54:04.716Z,8.15
2023-05-03T07:56:32.664Z,9.03
2023-05-03T07:59:09.264Z,9.30
2023-05-03T08:01:38.041Z,8.07
2023-05-03T08:04:05.442Z,9.27
2023-05-03T08:06:36.038Z,8.97
2023-05-03T08:09:04.910Z,8.10
2023-05-03T08:11:32.171Z,7.93
2023-05-03T08:13:59.210Z,7.93
2023-05-03T08:16:26.464Z,7.93
2023-05-03T08:18:53.540Z,7.47
2023-05-03T08:21:22.204Z,8.20
2023-05-03T08:23:49.266Z,13.30
2023-05-03T08:26:16.400Z,8.43
2023-05-03T08:28:43.441Z,8.10
2023-05-03T08:31:10.570Z,8.37
2023-05-03T08:33:37.870Z,7.90
2023-05-03T08:36:05.217Z,8.43
2023-05-03T08:38:33.618Z,7.83
2023-05-03T08:41:07.857Z,7.30
2023-05-03T08:43:40.352Z,7.57
2023-05-03T08:46:11.292Z,7.53
2023-05-03T08:48:38.351Z,7.43
2023-05-03T08:51:08.620Z,7.57
2023-05-03T08:53:35.660Z,6.50
2023-05-03T08:56:07.222Z,7.67
2023-05-03T08:58:37.926Z,7.10
2023-05-03T09:01:09.204Z,8.00
2023-05-03T09:03:37.424Z,7.17
2023-05-03T09:06:20.638Z,7.10
2023-05-03T09:08:47.917Z,7.40
2023-05-03T09:11:39.889Z,6.70
2023-05-03T09:14:15.613Z,6.80
2023-05-03T09:16:46.788Z,7.50
2023-05-03T09:19:15.924Z,7.27
2023-05-03T09:21:45.009Z,6.93
2023-05-03T09:24:17.074Z,7.83
2023-05-03T09:26:46.064Z,6.83
2023-05-03T09:29:28.321Z,6.60
2023-05-03T09:32:05.057Z,6.10
2023-05-03T09:34:36.093Z,6.10
2023-05-03T09:37:03.136Z,7.37
2023-05-03T09:39:30.365Z,6.50
2023-05-03T09:41:58.111Z,6.80
2023-05-03T09:44:41.862Z,6.83
2023-05-03T09:47:09.303Z,5.53
2023-05-03T09:49:37.485Z,7.30
2023-05-03T09:52:05.174Z,6.13
2023-05-03T09:54:32.324Z,6.27
2023-05-03T09:57:01.012Z,5.60
2023-05-03T09:59:28.648Z,6.43
2023-05-03T10:02:01.714Z,5.60
2023-05-03T10:04:33.623Z,6.20
2023-05-03T10:07:06.904Z,6.30
2023-05-03T10:09:40.484Z,6.10
2023-05-03T10:12:13.408Z,5.30
2023-05-03T10:14:44.592Z,5.70
2023-05-03T10:17:47.289Z,5.83
2023-05-03T10:20:21.037Z,6.60
2023-05-03T10:23:06.594Z,6.00
2023-05-03T10:25:36.561Z,6.73
2023-05-03T10:28:04.581Z,6.50
2023-05-03T10:30:34.936Z,6.33
2023-05-03T10:33:14.458Z,7.27
2023-05-03T10:35:54.635Z,7.00
2023-05-03T10:38:27.845Z,7.53
2023-05-03T10:40:56.743Z,6.97
2023-05-03T10:43:32.551Z,7.33
2023-05-03T10:46:07.496Z,6.90
2023-05-03T10:48:35.366Z,7.50
2023-05-03T10:51:39.106Z,7.20
2023-05-03T10:54:06.236Z,7.30
2023-05-03T10:56:33.250Z,7.30
2023-05-03T10:59:00.234Z,7.30
2023-05-03T11:01:28.234Z,9.93
2023-05-03T11:04:21.345Z,6.20
2023-05-03T11:06:52.181Z,6.47
2023-05-03T11:09:19.355Z,6.40
2023-05-03T11:11:46.416Z,5.03
2023-05-03T11:14:14.074Z,5.37
2023-05-03T11:16:48.232Z,5.83
2023-05-03T11:19:15.888Z,6.37
2023-05-03T11:21:43.943Z,5.90
2023-05-03T11:24:11.659Z,5.33
2023-05-03T11:26:39.322Z,5.80
2023-05-03T11:29:06.641Z,5.80
2023-05-03T11:31:35.971Z,6.97
2023-05-03T11:34:03.295Z,6.23
2023-05-03T11:36:31.218Z,5.80
2023-05-03T11:38:58.236Z,5.73
2023-05-03T11:41:25.261Z,7.30
2023-05-03T11:44:00.757Z,6.83
2023-05-03T11:46:35.623Z,6.30
2023-05-03T11:49:03.674Z,5.83
2023-05-03T11:51:31.556Z,6.30
2023-05-03T11:54:13.041Z,7.73
2023-05-03T11:56:48.010Z,5.87
2023-05-03T11:59:15.021Z,6.27
2023-05-03T12:01:43.402Z,6.07
2023-05-03T12:04:13.149Z,7.40
2023-05-03T12:06:42.461Z,7.40
2023-05-03T12:09:15.770Z,6.57
2023-05-03T12:11:44.758Z,6.37
2023-05-03T12:14:12.766Z,7.70
2023-05-03T12:16:50.837Z,5.80
2023-05-03T12:19:31.762Z,5.70
2023-05-03T12:22:20.925Z,5.10
2023-05-03T12:24:49.394Z,4.83
2023-05-03T12:27:19.318Z,5.80
2023-05-03T12:29:47.657Z,4.70
2023-05-03T12:32:15.380Z,4.87
2023-05-03T12:34:42.999Z,4.27
2023-05-03T12:37:16.766Z,5.37
2023-05-03T12:39:47.329Z,4.40
2023-05-03T12:42:21.950Z,4.43
2023-05-03T12:44:52.051Z,4.47
2023-05-03T12:47:28.294Z,4.57
2023-05-03T12:49:59.623Z,4.30
2023-05-03T12:55:03.082Z,4.90
2023-05-03T12:57:33.797Z,4.93
2023-05-03T13:00:11.571Z,5.60
2023-05-03T13:03:21.244Z,5.07
2023-05-03T13:05:35.252Z,4.97
2023-05-03T13:08:09.187Z,4.70
2023-05-03T13:10:41.548Z,4.33
2023-05-03T13:13:09.721Z,4.47
2023-05-03T13:15:37.853Z,4.90
2023-05-03T13:18:08.200Z,4.43
2023-05-03T13:20:37.206Z,4.07
2023-05-03T13:23:04.884Z,3.50
2023-05-03T13:25:32.051Z,4.80
2023-05-03T13:28:02.013Z,4.63
2023-05-03T13:30:29.371Z,4.57
2023-05-03T13:32:56.335Z,5.03
2023-05-03T13:35:23.403Z,4.77
2023-05-03T13:37:51.131Z,4.60
2023-05-03T13:40:18.262Z,4.87
2023-05-03T13:42:45.575Z,4.60
2023-05-03T13:45:13.689Z,4.27
2023-05-03T13:48:04.770Z,4.00
2023-05-03T13:50:31.587Z,4.40
2023-05-03T13:52:58.563Z,4.27
2023-05-03T13:55:26.995Z,4.33
2023-05-03T13:57:53.987Z,3.73
2023-05-03T14:00:21.162Z,4.07
2023-05-03T14:02:48.420Z,4.70
2023-05-03T14:05:15.626Z,4.10
2023-05-03T14:07:42.596Z,4.97
2023-05-03T14:10:11.108Z,4.47
2023-05-03T14:12:38.535Z,3.90
2023-05-03T14:15:07.062Z,5.37
2023-05-03T14:17:34.524Z,4.40
2023-05-03T14:20:02.057Z,4.40
2023-05-03T14:22:29.460Z,4.30
2023-05-03T14:24:56.857Z,4.67
2023-05-03T14:27:23.916Z,4.97
2023-05-03T14:29:51.676Z,5.30
2023-05-03T14:32:20.271Z,4.60
2023-05-03T14:34:47.449Z,4.87
2023-05-03T14:37:14.493Z,4.50
2023-05-03T14:39:41.497Z,4.47
2023-05-03T14:42:10.490Z,4.73
2023-05-03T14:44:37.627Z,4.73
2023-05-03T14:47:06.519Z,4.60
2023-05-03T14:49:41.092Z,5.40
2023-05-03T14:52:09.080Z,4.53
2023-05-03T14:54:37.829Z,5.10
2023-05-03T14:57:05.362Z,5.33
2023-05-03T14:59:36.037Z,6.10
2023-05-03T15:02:03.158Z,4.80
2023-05-03T15:04:30.980Z,5.00
2023-05-03T15:07:02.981Z,4.50
2023-05-03T15:09:33.815Z,5.00
2023-05-03T15:12:02.191Z,4.80
2023-05-03T15:14:29.457Z,5.40
2023-05-03T15:16:56.517Z,4.67
2023-05-03T15:19:23.568Z,4.27
2023-05-03T15:21:51.664Z,4.87
2023-05-03T15:24:19.035Z,4.93
2023-05-03T15:26:47.278Z,4.83
2023-05-03T15:29:15.860Z,5.53
2023-05-03T15:31:43.938Z,4.73
2023-05-03T15:34:12.595Z,5.00
2023-05-03T15:36:40.818Z,5.20
2023-05-03T15:39:09.575Z,5.53
2023-05-03T15:41:36.653Z,5.33
2023-05-03T15:44:05.512Z,4.90
2023-05-03T15:46:33.739Z,4.93
2023-05-03T15:49:01.287Z,5.10
2023-05-03T15:51:29.441Z,6.60
2023-05-03T15:53:56.568Z,6.27
2023-05-03T15:56:23.714Z,4.27
2023-05-03T15:58:50.760Z,5.63
2023-05-03T16:01:19.061Z,5.30
2023-05-03T16:03:46.425Z,5.70
2023-05-03T16:06:16.930Z,5.20
2023-05-03T16:08:44.366Z,5.50
2023-05-03T16:11:12.845Z,5.63
2023-05-03T16:13:39.915Z,5.07
2023-05-03T16:16:07.037Z,5.47
2023-05-03T16:18:34.245Z,5.70
2023-05-03T16:21:02.308Z,5.17
2023-05-03T16:23:29.426Z,5.30
2023-05-03T16:25:57.059Z,5.50
2023-05-03T16:28:24.125Z,5.50
2023-05-03T16:30:51.790Z,5.40
2023-05-03T16:33:18.776Z,5.37
2023-05-03T16:35:46.202Z,5.33
2023-05-03T16:38:13.213Z,5.73
2023-05-03T16:40:40.583Z,5.73
2023-05-03T16:43:07.893Z,5.30
2023-05-03T16:45:34.949Z,5.70
2023-05-03T16:48:04.858Z,6.67
2023-05-03T16:50:33.250Z,5.63
2023-05-03T16:53:00.301Z,4.20
2023-05-03T16:55:27.281Z,5.93
2023-05-03T16:57:54.303Z,5.50
2023-05-03T17:00:22.007Z,5.33
2023-05-03T17:02:49.283Z,6.47
2023-05-03T17:05:16.525Z,4.97
2023-05-03T17:07:43.510Z,4.53
2023-05-03T17:10:10.779Z,5.20
2023-05-03T17:12:38.009Z,5.67
2023-05-03T17:15:05.442Z,5.07
2023-05-03T17:17:32.852Z,5.90
2023-05-03T17:19:59.942Z,4.80
2023-05-03T17:22:26.947Z,5.23
2023-05-03T17:24:55.364Z,5.60
2023-05-03T17:27:24.336Z,5.13
2023-05-03T17:29:51.501Z,4.93
2023-05-03T17:32:18.546Z,5.80
2023-05-03T17:34:45.772Z,4.87
2023-05-03T17:37:12.838Z,4.83
2023-05-03T17:39:39.917Z,5.03
2023-05-03T17:42:07.007Z,4.80
2023-05-03T17:44:34.470Z,4.83
2023-05-03T17:47:01.440Z,5.20
2023-05-03T17:49:29.047Z,4.47
2023-05-03T17:51:57.229Z,5.53
2023-05-03T17:54:24.839Z,5.30
2023-05-03T17:56:52.122Z,5.73
2023-05-03T17:59:19.132Z,6.60
2023-05-03T18:01:48.560Z,5.97
2023-05-03T18:04:15.633Z,6.50
2023-05-03T18:06:43.479Z,6.30
2023-05-03T18:09:10.795Z,5.83
2023-05-03T18:11:37.975Z,5.33
2023-05-03T18:14:05.129Z,4.90
2023-05-03T18:16:33.178Z,5.90
2023-05-03T18:19:01.160Z,6.40
2023-05-03T18:21:29.810Z,5.30
2023-05-03T18:23:57.284Z,5.97
2023-05-03T18:26:25.964Z,5.40
2023-05-03T18:28:53.902Z,6.50
2023-05-03T18:31:22.000Z,7.53
2023-05-03T18:33:49.842Z,9.00
2023-05-03T18:36:17.682Z,9.10
2023-05-03T18:38:47.331Z,8.90
2023-05-03T18:41:16.149Z,8.50
2023-05-03T18:43:44.689Z,9.00
2023-05-03T18:46:16.934Z,9.05
2023-05-03T18:48:44.467Z,9.30
2023-05-03T18:51:11.795Z,8.77
2023-05-03T18:53:39.399Z,9.60
2023-05-03T18:56:07.210Z,8.57
2023-05-03T18:58:34.874Z,7.78
2023-05-03T19:01:05.245Z,7.30
2023-05-03T19:03:33.167Z,7.63
2023-05-03T19:06:05.241Z,7.63
2023-05-03T19:08:33.196Z,8.00
2023-05-03T19:11:13.198Z,8.65
2023-05-03T19:13:43.205Z,8.13
2023-05-03T19:16:11.405Z,7.82
2023-05-03T19:18:42.446Z,7.90
2023-05-03T19:21:12.253Z,7.80
2023-05-03T19:23:39.841Z,7.85
2023-05-03T19:26:07.727Z,9.25
2023-05-03T19:28:36.292Z,8.32
2023-05-03T19:31:07.523Z,9.80
2023-05-03T19:33:35.389Z,8.60
2023-05-03T19:36:09.241Z,8.30
2023-05-03T19:38:36.659Z,8.55
2023-05-03T19:41:12.057Z,9.07
2023-05-03T19:43:40.949Z,8.20
2023-05-03T19:46:08.530Z,9.40
2023-05-03T19:48:36.292Z,9.43
2023-05-03T19:51:05.795Z,8.43
2023-05-03T19:53:35.803Z,8.15
2023-05-03T19:56:03.326Z,8.07
2023-05-03T19:58:32.102Z,8.48
2023-05-03T20:00:59.986Z,8.20
2023-05-03T20:03:28.285Z,9.40
2023-05-03T20:05:56.075Z,9.13
2023-05-03T20:08:25.039Z,9.73
2023-05-03T20:10:52.939Z,9.73
2023-05-03T20:13:20.069Z,9.43
2023-05-03T20:15:47.463Z,10.20
2023-05-03T20:18:14.801Z,10.50
2023-05-03T20:20:42.231Z,9.23
2023-05-03T20:23:09.367Z,12.68
2023-05-03T20:25:36.755Z,16.40
2023-05-03T20:28:04.189Z,15.70
2023-05-03T20:30:32.312Z,18.05
2023-05-03T20:32:59.895Z,16.85
2023-05-03T20:35:27.009Z,17.85
2023-05-03T20:37:54.024Z,16.33
2023-05-03T20:40:21.312Z,15.90
2023-05-03T20:42:48.386Z,14.77
2023-05-03T20:45:15.477Z,12.73
2023-05-03T20:47:42.655Z,13.40
2023-05-03T20:50:09.919Z,15.50
2023-05-03T20:52:36.908Z,15.60
2023-05-03T20:55:04.005Z,14.52
2023-05-03T20:57:31.433Z,10.90
2023-05-03T20:59:59.992Z,11.65
2023-05-03T21:02:27.100Z,12.13
2023-05-03T21:04:54.103Z,12.25
2023-05-03T21:07:21.172Z,11.75
2023-05-03T21:09:48.144Z,11.25
2023-05-03T21:12:15.161Z,11.40
2023-05-03T21:14:42.177Z,11.50
2023-05-03T21:17:10.027Z,10.80
2023-05-03T21:19:37.042Z,11.68
2023-05-03T21:22:04.023Z,10.25
2023-05-03T21:24:31.236Z,8.60
2023-05-03T21:26:59.150Z,8.77
2023-05-03T21:29:26.113Z,9.35
2023-05-03T21:31:53.114Z,8.70
2023-05-03T21:34:20.155Z,9.85
2023-05-03T21:36:47.219Z,8.00
2023-05-03T21:39:14.228Z,9.15
2023-05-03T21:41:41.372Z,8.70
2023-05-03T21:44:08.333Z,8.15
2023-05-03T21:46:36.294Z,8.43
2023-05-03T21:49:03.651Z,8.18
2023-05-03T21:51:31.513Z,9.10
2023-05-03T21:53:58.529Z,9.15
2023-05-03T21:56:25.487Z,8.50
2023-05-03T21:58:52.433Z,10.27
2023-05-03T22:01:22.578Z,7.75
2023-05-03T22:03:50.477Z,7.97
2023-05-03T22:06:17.977Z,7.38
2023-05-03T22:08:44.976Z,7.70
2023-05-03T22:11:12.620Z,7.82
2023-05-03T22:13:54.610Z,8.18
2023-05-03T22:16:26.729Z,8.07
2023-05-03T22:18:53.758Z,8.35
2023-05-03T22:21:20.970Z,9.23
2023-05-03T22:23:48.330Z,8.60
2023-05-03T22:26:15.309Z,9.05
2023-05-03T22:28:42.295Z,8.50
2023-05-03T22:31:09.295Z,8.13
2023-05-03T22:33:36.361Z,8.65
2023-05-03T22:36:03.477Z,10.82
2023-05-03T22:38:30.523Z,11.00
2023-05-03T22:40:57.711Z,11.27
2023-05-03T22:43:24.745Z,10.57
2023-05-03T22:45:51.988Z,10.18
2023-05-03T22:48:19.151Z,9.68
2023-05-03T22:50:46.445Z,9.52
2023-05-03T22:53:13.414Z,9.00
2023-05-03T22:55:40.621Z,7.97
2023-05-03T22:58:07.626Z,9.20
2023-05-03T23:00:34.568Z,8.07
2023-05-03T23:03:01.652Z,7.97
2023-05-03T23:05:28.727Z,7.93
2023-05-03T23:07:55.767Z,7.60
2023-05-03T23:10:22.903Z,8.73
2023-05-03T23:12:50.219Z,7.95
2023-05-03T23:15:17.554Z,8.65
2023-05-03T23:17:44.735Z,8.25
2023-05-03T23:20:12.500Z,8.25
2023-05-03T23:22:42.510Z,8.07
2023-05-03T23:25:09.987Z,8.00
2023-05-03T23:27:36.964Z,8.95
2023-05-03T23:30:05.238Z,9.02
2023-05-03T23:32:33.077Z,10.60
2023-05-03T23:35:00.471Z,10.20
2023-05-03T23:37:27.632Z,11.60
2023-05-03T23:39:54.947Z,11.23
2023-05-03T23:42:21.910Z,11.98
2023-05-03T23:44:55.380Z,12.40
2023-05-03T23:47:23.423Z,12.65
2023-05-03T23:49:50.577Z,13.90
2023-05-03T23:52:19.198Z,14.88
2023-05-03T23:54:46.567Z,11.30
2023-05-03T23:57:13.621Z,10.23
2023-05-03T23:59:40.548Z,10.80
